This is the latest recevied weather packets stored in our database for station/object EA1GGY-1. If no packets are shown the sender has not sent any weather packets the latest 10 day(s).
| Time | Temp. | Humidity | Pressure | Rain* | Wind** | Luminosity | Snow |
|---|---|---|---|---|---|---|---|
| 1778147931 | 13.33° C | 52% | 1006.4 hPa | - | - | - | - |
| 1778147331 | 13.89° C | 51% | 1006.3 hPa | - | - | - | - |
| 1778146730 | 14.44° C | 51% | 1006.3 hPa | - | - | - | - |
| 1778146129 | 15.56° C | 50% | 1006.4 hPa | - | - | - | - |
| 1778145529 | 15.56° C | 50% | 1006.4 hPa | - | - | - | - |
| 1778144927 | 14.44° C | 53% | 1006.5 hPa | - | - | - | - |
| 1778144326 | 14.44° C | 53% | 1006.4 hPa | - | - | - | - |
| 1778143727 | 12.22° C | 58% | 1006.3 hPa | - | - | - | - |
| 1778143126 | 11.11° C | 60% | 1006.3 hPa | - | - | - | - |
| 1778142524 | 11.11° C | 61% | 1006.4 hPa | - | - | - | - |
| 1778141923 | 11.11° C | 62% | 1006.4 hPa | - | - | - | - |
| 1778141323 | 11.11° C | 65% | 1006.3 hPa | - | - | - | - |
| 1778140721 | 10.56° C | 68% | 1006.4 hPa | - | - | - | - |
| 1778140120 | 10.56° C | 68% | 1006.4 hPa | - | - | - | - |
| 1778139519 | 10° C | 67% | 1006.4 hPa | - | - | - | - |
| 1778138919 | 10° C | 67% | 1006.5 hPa | - | - | - | - |
| 1778138318 | 9.44° C | 69% | 1006.6 hPa | - | - | - | - |
| 1778137717 | 8.89° C | 70% | 1006.7 hPa | - | - | - | - |
| 1778137116 | 8.89° C | 70% | 1006.7 hPa | - | - | - | - |
| 1778136516 | 8.89° C | 70% | 1006.6 hPa | - | - | - | - |
| 1778135915 | 8.89° C | 70% | 1006.6 hPa | - | - | - | - |
| 1778135314 | 8.89° C | 70% | 1006.6 hPa | - | - | - | - |
| 1778134713 | 9.44° C | 69% | 1006.5 hPa | - | - | - | - |
| 1778134112 | 8.89° C | 71% | 1006.5 hPa | - | - | - | - |
| 1778133511 | 8.89° C | 73% | 1006.6 hPa | - | - | - | - |
* Rain since midnight (hover to see other rain measurements)
** Current wind speed in m/s (hover to see current wind gust speed)